Time;durP1;ratioP1;P1;durP2;ratioP2;P2;SDS_P1;SDS_P2;PMS_P1;PMS_P2;Temp;Humidity;BMP_temperature;BMP_pressure;BME280_temperature;BME280_humidity;BME280_pressure;Samples;Min_cycle;Max_cycle;Signal;HPM_P1;HPM_P2
2022/02/18 00:02:06;;;;;;;10.75;2.70;;;11.40;51.70;;;;;;4995100;28;20198;-67
2022/02/18 00:04:32;;;;;;;9.50;2.30;;;11.30;51.80;;;;;;4995647;28;20053;-69
2022/02/18 00:07:00;;;;;;;8.85;2.58;;;11.30;51.80;;;;;;4994611;28;20034;-67
2022/02/18 00:09:26;;;;;;;11.25;3.15;;;11.30;52.00;;;;;;4995693;28;20034;-67
2022/02/18 00:11:52;;;;;;;11.18;2.70;;;11.20;52.10;;;;;;4962059;28;20030;-68
2022/02/18 00:14:17;;;;;;;10.07;2.90;;;11.20;52.20;;;;;;4995186;28;20029;-68
2022/02/18 00:16:43;;;;;;;12.48;2.90;;;11.20;52.10;;;;;;4995273;28;20428;-70
2022/02/18 00:19:09;;;;;;;8.77;2.50;;;11.30;52.00;;;;;;4977418;28;20026;-71
2022/02/18 00:21:35;;;;;;;11.88;2.28;;;11.30;52.10;;;;;;4961612;28;20042;-68
2022/02/18 00:24:01;;;;;;;8.13;2.10;;;11.30;52.10;;;;;;4994697;28;20112;-68
2022/02/18 00:26:27;;;;;;;11.05;2.17;;;11.30;52.20;;;;;;4989565;28;20454;-70
2022/02/18 00:28:53;;;;;;;12.07;2.50;;;11.20;52.40;;;;;;4974387;28;20054;-68
2022/02/18 00:31:19;;;;;;;12.63;2.67;;;11.40;52.20;;;;;;4973760;28;20489;-67
2022/02/18 00:33:44;;;;;;;9.05;2.55;;;11.40;52.20;;;;;;4975264;28;20045;-68
2022/02/18 00:36:10;;;;;;;8.32;2.67;;;11.30;52.30;;;;;;4975063;28;20062;-68
2022/02/18 00:38:36;;;;;;;8.98;2.85;;;11.30;52.30;;;;;;4975597;28;20477;-68
2022/02/18 00:41:06;;;;;;;11.88;2.70;;;11.40;52.10;;;;;;4974653;28;20430;-67
2022/02/18 00:43:31;;;;;;;12.40;2.92;;;11.30;52.10;;;;;;4975012;28;20034;-68
2022/02/18 00:45:57;;;;;;;13.45;3.33;;;11.30;52.20;;;;;;4975147;28;20133;-69
2022/02/18 00:48:22;;;;;;;10.50;2.72;;;11.40;52.10;;;;;;4973466;28;20533;-68
2022/02/18 00:50:48;;;;;;;17.17;3.47;;;11.40;52.30;;;;;;4974421;28;20053;-68
2022/02/18 00:53:14;;;;;;;11.63;2.90;;;11.40;52.40;;;;;;4973914;28;20489;-68
2022/02/18 00:55:40;;;;;;;11.88;2.80;;;11.40;52.40;;;;;;4973285;28;20092;-67
2022/02/18 00:58:05;;;;;;;13.90;3.42;;;11.40;52.70;;;;;;4974185;28;20030;-68
2022/02/18 01:00:31;;;;;;;14.20;3.45;;;11.40;52.70;;;;;;4974424;28;20074;-69
2022/02/18 01:02:57;;;;;;;10.18;2.72;;;11.50;52.70;;;;;;4973890;28;20430;-68
2022/02/18 01:05:22;;;;;;;16.52;3.42;;;11.50;52.90;;;;;;4973996;28;20376;-68
2022/02/18 01:07:48;;;;;;;13.73;3.60;;;11.40;53.10;;;;;;4974426;28;20454;-68
2022/02/18 01:10:14;;;;;;;16.23;3.33;;;11.40;53.30;;;;;;4972027;28;20038;-68
2022/02/18 01:12:41;;;;;;;11.13;3.15;;;11.40;53.40;;;;;;4974589;28;20031;-68
2022/02/18 01:15:08;;;;;;;16.00;2.83;;;11.40;53.40;;;;;;4972916;28;20096;-68
2022/02/18 01:17:34;;;;;;;10.50;2.85;;;11.50;53.30;;;;;;4973304;28;20114;-68
2022/02/18 01:20:00;;;;;;;12.32;3.25;;;11.50;53.30;;;;;;4973197;28;20113;-68
2022/02/18 01:22:26;;;;;;;10.27;2.75;;;11.50;53.40;;;;;;4973575;28;20122;-68
2022/02/18 01:24:51;;;;;;;12.85;3.22;;;11.40;53.60;;;;;;4974191;28;20030;-67
2022/02/18 01:27:17;;;;;;;11.65;3.42;;;11.40;53.60;;;;;;4984534;28;20432;-68
2022/02/18 01:29:43;;;;;;;12.90;3.58;;;11.40;53.70;;;;;;4976315;28;20041;-68
2022/02/18 01:32:10;;;;;;;15.02;3.50;;;11.40;53.80;;;;;;4992517;28;20026;-69
2022/02/18 01:34:38;;;;;;;15.30;3.92;;;11.40;53.90;;;;;;4993284;28;20030;-68
2022/02/18 01:37:05;;;;;;;14.75;3.53;;;11.40;53.90;;;;;;4975790;28;20098;-69
2022/02/18 01:39:31;;;;;;;13.02;3.38;;;11.40;53.90;;;;;;4975613;28;20034;-68
2022/02/18 01:41:57;;;;;;;18.90;3.85;;;11.40;53.90;;;;;;4993036;28;20026;-68
2022/02/18 01:44:43;;;;;;;14.25;3.30;;;11.50;53.90;;;;;;4992495;28;20030;-68
2022/02/18 01:47:19;;;;;;;12.50;3.30;;;11.50;53.90;;;;;;4992889;28;20076;-68
2022/02/18 01:49:46;;;;;;;12.57;3.60;;;11.50;53.90;;;;;;4976574;28;20026;-69
2022/02/18 01:52:14;;;;;;;12.65;3.42;;;11.50;53.90;;;;;;4975488;28;20031;-68
2022/02/18 01:54:40;;;;;;;15.73;3.38;;;11.50;53.90;;;;;;4975563;28;20026;-69
2022/02/18 01:57:06;;;;;;;15.95;3.88;;;11.50;54.10;;;;;;4974971;28;20033;-69
2022/02/18 01:59:32;;;;;;;13.85;3.63;;;11.50;54.00;;;;;;4993080;28;20046;-69
2022/02/18 02:01:58;;;;;;;13.60;3.47;;;11.50;53.90;;;;;;4975630;28;20040;-69
2022/02/18 02:04:28;;;;;;;16.85;3.75;;;11.60;54.10;;;;;;4992466;28;20109;-70
2022/02/18 02:06:58;;;;;;;20.05;4.10;;;11.60;54.10;;;;;;4992918;28;20030;-69
2022/02/18 02:09:25;;;;;;;16.92;4.07;;;11.60;54.20;;;;;;4974940;28;20026;-67
2022/02/18 02:12:09;;;;;;;16.17;4.00;;;11.60;54.20;;;;;;4975327;28;20030;-68
2022/02/18 02:14:35;;;;;;;20.25;4.40;;;11.50;54.30;;;;;;4974293;28;20034;-69
2022/02/18 02:17:02;;;;;;;16.15;3.42;;;11.50;54.20;;;;;;4993235;28;20077;-69
2022/02/18 02:19:30;;;;;;;14.65;3.78;;;11.50;54.20;;;;;;4974859;28;20030;-69
2022/02/18 02:21:56;;;;;;;20.35;4.03;;;11.50;54.00;;;;;;4993154;28;20027;-68
2022/02/18 02:24:22;;;;;;;14.13;3.47;;;11.50;53.80;;;;;;4974825;28;20045;-68
2022/02/18 02:26:49;;;;;;;14.25;3.78;;;11.50;53.40;;;;;;4964674;28;20087;-67
2022/02/18 02:29:15;;;;;;;14.68;3.50;;;11.50;52.80;;;;;;4952553;29;20039;-68
2022/02/18 02:31:41;;;;;;;14.10;3.03;;;11.50;52.40;;;;;;4953779;28;20035;-68
2022/02/18 02:34:08;;;;;;;10.10;3.20;;;11.40;51.00;;;;;;4953723;28;20098;-71
2022/02/18 02:36:35;;;;;;;12.38;2.70;;;11.40;49.90;;;;;;4953682;28;20447;-68
2022/02/18 02:39:01;;;;;;;10.32;2.70;;;11.40;49.30;;;;;;4953928;28;20031;-68
2022/02/18 02:41:26;;;;;;;13.35;2.75;;;11.50;48.80;;;;;;4952142;29;20035;-68
2022/02/18 02:43:52;;;;;;;9.70;2.75;;;11.40;47.30;;;;;;4953667;28;20078;-68
2022/02/18 02:46:18;;;;;;;10.73;2.50;;;11.30;46.50;;;;;;4953721;28;20035;-68
2022/02/18 02:48:44;;;;;;;8.40;1.90;;;11.40;46.50;;;;;;4953750;28;20027;-68
2022/02/18 02:51:10;;;;;;;9.73;2.55;;;11.40;45.50;;;;;;4951580;29;20023;-68
2022/02/18 02:53:37;;;;;;;7.18;1.92;;;11.40;45.00;;;;;;4953303;28;20039;-68
2022/02/18 02:56:03;;;;;;;7.85;2.10;;;11.40;44.20;;;;;;4953801;28;20042;-68
2022/02/18 02:58:29;;;;;;;9.32;2.50;;;11.40;44.20;;;;;;4952785;28;20259;-68
2022/02/18 03:00:55;;;;;;;10.18;2.28;;;11.30;43.90;;;;;;4953375;29;20394;-68
2022/02/18 03:03:20;;;;;;;6.70;1.92;;;11.40;43.70;;;;;;4953234;28;20042;-68
2022/02/18 03:05:46;;;;;;;11.75;2.08;;;11.30;43.50;;;;;;4952464;29;20031;-68
2022/02/18 03:08:12;;;;;;;7.55;2.03;;;11.30;43.50;;;;;;4951926;29;20035;-69
2022/02/18 03:10:37;;;;;;;6.20;2.20;;;11.20;43.40;;;;;;4951907;29;20027;-68
2022/02/18 03:13:03;;;;;;;6.25;1.90;;;11.30;43.60;;;;;;4953069;28;20109;-68
2022/02/18 03:15:29;;;;;;;6.22;2.05;;;11.30;43.60;;;;;;4951582;29;20227;-69
2022/02/18 03:17:55;;;;;;;6.53;1.75;;;11.40;43.90;;;;;;4952324;29;20035;-69
2022/02/18 03:20:22;;;;;;;6.97;1.70;;;11.40;43.50;;;;;;4953017;28;20455;-69
2022/02/18 03:22:48;;;;;;;8.13;2.03;;;11.40;44.00;;;;;;4953473;28;20045;-69
2022/02/18 03:25:15;;;;;;;9.68;2.33;;;11.40;44.40;;;;;;4953513;28;20051;-69
2022/02/18 03:27:42;;;;;;;9.65;2.38;;;11.40;45.10;;;;;;4958123;28;20398;-68
2022/02/18 03:30:10;;;;;;;15.07;3.00;;;11.40;45.30;;;;;;4959944;28;20070;-68
2022/02/18 03:32:36;;;;;;;10.30;2.63;;;11.40;46.00;;;;;;4957764;29;20039;-68
2022/02/18 03:35:03;;;;;;;9.55;2.15;;;11.40;46.00;;;;;;4959869;28;20170;-68
2022/02/18 03:37:29;;;;;;;9.45;2.45;;;11.40;46.30;;;;;;4959077;28;20041;-69
2022/02/18 03:39:54;;;;;;;10.52;2.50;;;11.40;46.40;;;;;;4958696;28;20058;-69
2022/02/18 03:42:20;;;;;;;10.80;2.63;;;11.40;46.40;;;;;;4958892;28;20067;-69
2022/02/18 03:44:46;;;;;;;11.60;2.90;;;11.50;46.50;;;;;;4959604;28;20063;-69
2022/02/18 03:47:11;;;;;;;11.85;3.00;;;11.50;46.50;;;;;;4958396;29;20035;-69
2022/02/18 03:49:37;;;;;;;13.00;2.90;;;11.50;46.60;;;;;;4959025;28;20102;-69
2022/02/18 03:52:03;;;;;;;16.55;3.10;;;11.50;46.80;;;;;;4958349;29;20062;-69
2022/02/18 03:54:29;;;;;;;11.77;3.15;;;11.60;47.50;;;;;;4957851;29;20033;-68
2022/02/18 03:56:55;;;;;;;12.77;2.72;;;11.60;46.80;;;;;;4959785;28;20486;-67
2022/02/18 03:59:21;;;;;;;12.45;2.53;;;11.60;46.90;;;;;;4958732;28;20066;-68
2022/02/18 04:01:47;;;;;;;8.68;2.30;;;11.50;47.00;;;;;;4958050;29;20090;-68
2022/02/18 04:04:13;;;;;;;9.75;2.78;;;11.50;47.20;;;;;;4959697;28;20426;-68
2022/02/18 04:06:38;;;;;;;11.45;2.42;;;11.50;47.40;;;;;;4957793;28;20030;-67
2022/02/18 04:09:04;;;;;;;12.73;3.13;;;11.50;47.50;;;;;;4959373;28;20028;-67
2022/02/18 04:11:30;;;;;;;8.73;2.38;;;11.50;47.50;;;;;;4959011;28;20482;-67
2022/02/18 04:13:55;;;;;;;10.90;2.63;;;11.50;47.50;;;;;;4959723;28;20062;-67
2022/02/18 04:16:23;;;;;;;10.02;2.20;;;11.50;47.80;;;;;;4957889;28;20019;-67
2022/02/18 04:18:56;;;;;;;9.57;2.75;;;11.50;47.80;;;;;;4957871;29;20054;-66
2022/02/18 04:21:22;;;;;;;8.70;2.75;;;11.40;47.90;;;;;;4959129;28;20031;-67
2022/02/18 04:23:48;;;;;;;9.07;2.92;;;11.30;48.10;;;;;;4959519;28;20423;-67
2022/02/18 04:26:14;;;;;;;17.27;2.50;;;11.40;48.20;;;;;;4964138;28;20054;-67
2022/02/18 04:28:40;;;;;;;12.75;2.78;;;11.40;48.20;;;;;;4997473;28;20390;-68
2022/02/18 04:31:06;;;;;;;12.65;2.83;;;11.40;48.30;;;;;;4997993;28;20061;-68
2022/02/18 04:33:32;;;;;;;11.65;2.50;;;11.40;48.30;;;;;;4997108;28;20026;-69
2022/02/18 04:35:57;;;;;;;8.85;2.42;;;11.50;48.30;;;;;;4997673;28;20029;-68
2022/02/18 04:38:23;;;;;;;11.80;2.85;;;11.50;48.30;;;;;;4992507;28;20121;-68
2022/02/18 04:40:49;;;;;;;12.38;2.80;;;11.50;48.50;;;;;;4994293;28;20101;-67
2022/02/18 04:43:14;;;;;;;11.32;3.40;;;11.50;48.50;;;;;;4994199;28;20027;-67
2022/02/18 04:45:40;;;;;;;11.02;3.10;;;11.60;48.60;;;;;;4976328;28;20042;-68
2022/02/18 04:48:06;;;;;;;12.38;3.13;;;11.60;48.60;;;;;;4994430;28;20114;-67
2022/02/18 04:50:31;;;;;;;13.20;3.28;;;11.60;48.60;;;;;;4993881;28;20033;-68
2022/02/18 04:52:57;;;;;;;10.80;2.65;;;11.70;48.60;;;;;;4993814;28;20389;-68
2022/02/18 04:55:23;;;;;;;10.05;3.45;;;11.70;48.60;;;;;;4976394;28;20034;-68
2022/02/18 04:57:49;;;;;;;14.00;3.05;;;11.70;48.70;;;;;;4993860;28;20022;-67
2022/02/18 05:00:19;;;;;;;11.60;2.70;;;11.60;48.80;;;;;;4993901;28;20027;-67
2022/02/18 05:02:46;;;;;;;13.07;2.88;;;11.70;48.90;;;;;;4994238;28;20034;-68
2022/02/18 05:05:11;;;;;;;8.52;2.85;;;11.70;48.80;;;;;;4994166;28;20030;-68
2022/02/18 05:07:37;;;;;;;10.50;2.50;;;11.80;48.80;;;;;;4993326;28;20421;-70
2022/02/18 05:10:05;;;;;;;11.60;2.60;;;11.80;48.70;;;;;;4976286;28;20061;-67
2022/02/18 05:12:31;;;;;;;11.70;2.67;;;11.80;48.60;;;;;;4993548;28;20049;-67
2022/02/18 05:14:57;;;;;;;10.43;2.83;;;11.80;48.60;;;;;;4976437;28;20459;-68
2022/02/18 05:17:23;;;;;;;10.50;3.20;;;11.80;48.70;;;;;;4993474;28;20030;-68
2022/02/18 05:19:48;;;;;;;13.50;2.85;;;11.90;48.70;;;;;;4976413;28;20027;-68
2022/02/18 05:22:14;;;;;;;10.10;2.83;;;11.80;49.30;;;;;;4976386;28;20488;-68
2022/02/18 05:24:40;;;;;;;13.05;3.72;;;11.80;48.90;;;;;;4975816;28;20304;-67
2022/02/18 05:27:06;;;;;;;10.35;2.58;;;11.80;49.00;;;;;;4959886;28;20054;-68
2022/02/18 05:29:32;;;;;;;12.77;3.63;;;11.80;49.10;;;;;;4993204;28;20397;-67
2022/02/18 05:31:59;;;;;;;17.92;3.65;;;11.70;49.00;;;;;;4976359;28;20087;-67
2022/02/18 05:34:25;;;;;;;21.52;4.30;;;11.70;49.20;;;;;;4993262;28;20484;-68
2022/02/18 05:36:51;;;;;;;85.13;10.40;;;11.70;49.20;;;;;;4993774;28;20058;-68
2022/02/18 05:39:17;;;;;;;38.05;6.20;;;11.80;49.30;;;;;;4993585;28;20077;-67
2022/02/18 05:41:42;;;;;;;21.45;4.45;;;11.80;49.30;;;;;;4993254;28;20028;-68
2022/02/18 05:44:08;;;;;;;18.20;3.90;;;11.80;49.30;;;;;;4976114;28;20034;-68
2022/02/18 05:46:34;;;;;;;15.77;2.75;;;11.80;49.30;;;;;;4975564;28;20026;-68
2022/02/18 05:49:00;;;;;;;13.23;3.05;;;11.80;49.30;;;;;;4975923;28;20026;-68
2022/02/18 05:51:26;;;;;;;12.68;2.92;;;11.70;49.30;;;;;;4993062;28;20034;-69
2022/02/18 05:53:51;;;;;;;20.08;4.45;;;11.70;49.40;;;;;;4975943;28;20118;-68
2022/02/18 05:56:17;;;;;;;13.70;4.20;;;11.60;49.50;;;;;;4993510;28;20058;-68
2022/02/18 05:58:45;;;;;;;19.08;4.50;;;11.70;49.60;;;;;;4992848;28;20434;-68
2022/02/18 06:01:10;;;;;;;26.05;4.93;;;11.70;49.50;;;;;;4992903;28;20101;-69
2022/02/18 06:03:36;;;;;;;20.85;4.72;;;11.70;49.70;;;;;;4974695;28;20045;-66
2022/02/18 06:06:03;;;;;;;17.92;4.00;;;11.60;49.90;;;;;;4993136;28;20022;-67
2022/02/18 06:08:28;;;;;;;16.85;4.60;;;11.70;50.10;;;;;;4992799;28;20037;-68
2022/02/18 06:10:54;;;;;;;15.38;3.70;;;11.70;50.20;;;;;;4975936;28;20027;-61
2022/02/18 06:13:20;;;;;;;18.95;4.35;;;11.60;50.30;;;;;;4992696;28;20438;-65
2022/02/18 06:15:46;;;;;;;16.38;4.18;;;11.70;50.40;;;;;;4992808;28;20105;-66
2022/02/18 06:18:12;;;;;;;20.45;4.20;;;11.70;50.50;;;;;;4975440;28;20027;-65
2022/02/18 06:20:38;;;;;;;18.75;3.88;;;11.70;50.60;;;;;;4992459;28;20073;-65
2022/02/18 06:23:03;;;;;;;20.27;4.47;;;11.70;50.80;;;;;;4992757;28;20078;-64
2022/02/18 06:25:29;;;;;;;20.38;5.00;;;11.70;50.90;;;;;;4992265;28;20037;-65
2022/02/18 06:28:10;;;;;;;22.85;4.40;;;11.80;51.10;;;;;;4988247;28;20055;-64
2022/02/18 06:30:37;;;;;;;19.20;4.60;;;11.70;51.30;;;;;;4971458;28;20062;-64
2022/02/18 06:33:05;;;;;;;19.65;4.78;;;11.80;51.50;;;;;;4973389;28;20069;-65
2022/02/18 06:35:31;;;;;;;21.88;6.18;;;11.70;51.80;;;;;;4972933;28;20026;-65
2022/02/18 06:37:57;;;;;;;24.13;5.32;;;11.70;52.10;;;;;;4973115;28;20023;-65
2022/02/18 06:40:23;;;;;;;22.83;4.78;;;11.70;52.20;;;;;;4971589;28;20027;-65
2022/02/18 06:42:48;;;;;;;22.98;5.47;;;11.80;52.40;;;;;;4970968;28;20034;-65
2022/02/18 06:45:18;;;;;;;24.73;5.53;;;11.90;52.50;;;;;;4972820;28;20130;-65
2022/02/18 06:47:46;;;;;;;25.02;5.95;;;11.90;52.40;;;;;;4971487;28;20031;-63
2022/02/18 06:50:13;;;;;;;23.67;5.25;;;11.90;52.50;;;;;;4973080;28;20035;-64
2022/02/18 06:52:40;;;;;;;24.23;5.30;;;12.00;52.50;;;;;;4971434;28;20031;-66
2022/02/18 06:55:06;;;;;;;20.55;4.45;;;12.00;52.30;;;;;;4972519;28;20512;-64
2022/02/18 06:57:33;;;;;;;26.67;5.80;;;12.10;52.00;;;;;;4972324;28;20069;-64
2022/02/18 06:59:58;;;;;;;25.58;5.72;;;12.00;52.10;;;;;;4972654;28;20046;-64
2022/02/18 07:02:24;;;;;;;21.88;5.35;;;12.10;52.00;;;;;;4971884;28;20085;-64
2022/02/18 07:04:50;;;;;;;31.00;5.97;;;12.20;51.80;;;;;;4972075;28;20117;-63
2022/02/18 07:07:17;;;;;;;25.80;6.13;;;12.30;51.60;;;;;;4972451;28;20386;-63
2022/02/18 07:09:42;;;;;;;25.30;4.95;;;12.40;51.40;;;;;;4971023;28;20131;-64
2022/02/18 07:12:08;;;;;;;22.10;4.70;;;12.40;51.30;;;;;;4972605;28;20448;-65
2022/02/18 07:14:34;;;;;;;31.45;6.03;;;12.50;51.10;;;;;;4971051;28;20528;-65
2022/02/18 07:17:00;;;;;;;25.00;5.88;;;12.60;50.80;;;;;;4972860;28;20031;-66
2022/02/18 07:19:27;;;;;;;24.35;5.53;;;12.70;50.60;;;;;;4972574;28;20038;-65
2022/02/18 07:21:53;;;;;;;22.83;5.22;;;12.90;50.40;;;;;;4970581;28;20394;-63
2022/02/18 07:24:19;;;;;;;20.08;4.75;;;13.10;50.00;;;;;;4972665;28;20035;-64
2022/02/18 07:26:45;;;;;;;24.25;5.53;;;13.30;49.30;;;;;;4976759;28;20332;-65
2022/02/18 07:29:12;;;;;;;29.00;5.78;;;13.60;49.00;;;;;;4992174;28;20033;-64
2022/02/18 07:31:38;;;;;;;20.45;5.43;;;13.70;48.50;;;;;;4974023;28;20485;-66
2022/02/18 07:34:04;;;;;;;22.13;5.60;;;13.80;48.30;;;;;;4958438;28;20030;-66
2022/02/18 07:36:30;;;;;;;27.15;6.35;;;13.80;48.50;;;;;;4991230;28;20084;-65
2022/02/18 07:38:56;;;;;;;25.95;5.80;;;13.80;48.70;;;;;;4991186;28;20037;-66
2022/02/18 07:41:22;;;;;;;22.35;5.85;;;14.10;47.90;;;;;;4991606;28;20482;-65
2022/02/18 07:43:48;;;;;;;21.55;5.00;;;14.20;48.00;;;;;;4990883;28;20027;-65
2022/02/18 07:46:14;;;;;;;25.13;5.75;;;14.50;47.70;;;;;;4991777;28;20022;-65
2022/02/18 07:48:40;;;;;;;25.48;6.28;;;15.00;46.50;;;;;;4991036;28;20450;-65
2022/02/18 07:51:07;;;;;;;18.52;6.00;;;16.10;45.40;;;;;;4991326;28;20073;-65
2022/02/18 07:53:35;;;;;;;18.95;6.38;;;17.50;43.20;;;;;;4973903;28;20026;-70
2022/02/18 07:56:00;;;;;;;23.90;7.20;;;18.80;40.80;;;;;;4991639;28;20031;-65
2022/02/18 07:58:26;;;;;;;22.05;6.47;;;20.10;39.20;;;;;;4974185;28;20093;-67
2022/02/18 08:00:53;;;;;;;27.60;6.55;;;20.90;37.40;;;;;;4973084;28;20515;-65
2022/02/18 08:03:20;;;;;;;24.02;5.40;;;20.20;36.50;;;;;;4991357;28;20464;-65
2022/02/18 08:05:45;;;;;;;24.90;6.13;;;19.10;37.60;;;;;;4973096;28;20512;-65
2022/02/18 08:08:11;;;;;;;24.25;6.00;;;17.90;39.20;;;;;;4991362;28;20027;-65
2022/02/18 08:10:37;;;;;;;21.98;5.60;;;16.90;41.00;;;;;;4973593;28;20033;-65
2022/02/18 08:13:03;;;;;;;24.83;5.78;;;16.30;42.10;;;;;;4974605;28;20034;-65
2022/02/18 08:15:28;;;;;;;22.17;7.05;;;16.00;43.20;;;;;;4972656;28;20066;-65
2022/02/18 08:17:54;;;;;;;25.05;6.25;;;15.80;43.70;;;;;;4978279;28;20030;-65
2022/02/18 08:20:20;;;;;;;21.90;5.80;;;15.60;44.10;;;;;;4977953;28;20081;-66
2022/02/18 08:22:46;;;;;;;19.55;4.93;;;15.40;44.60;;;;;;4960290;28;20429;-66
2022/02/18 08:25:11;;;;;;;22.90;5.35;;;15.20;45.20;;;;;;4994306;28;20030;-65
2022/02/18 08:27:38;;;;;;;25.75;6.15;;;15.00;45.50;;;;;;4993281;28;20101;-66
2022/02/18 08:30:06;;;;;;;20.42;5.57;;;15.10;45.70;;;;;;4961613;28;20057;-65
2022/02/18 08:32:33;;;;;;;20.63;4.90;;;15.00;46.00;;;;;;4977529;28;20049;-67
2022/02/18 08:34:59;;;;;;;20.90;5.03;;;15.00;45.90;;;;;;4976794;28;20026;-66
2022/02/18 08:37:33;;;;;;;22.67;4.82;;;14.90;45.90;;;;;;4994319;28;20030;-68
2022/02/18 08:39:58;;;;;;;26.15;5.82;;;14.90;46.00;;;;;;4976383;28;20053;-66
2022/02/18 08:42:24;;;;;;;20.27;5.13;;;14.90;46.20;;;;;;4994441;28;20137;-66
2022/02/18 08:44:50;;;;;;;22.50;5.43;;;14.90;46.20;;;;;;4972494;28;20113;-66
2022/02/18 08:47:18;;;;;;;25.33;5.40;;;14.90;46.20;;;;;;4968338;28;20101;-67
2022/02/18 08:49:44;;;;;;;24.92;5.75;;;14.90;46.30;;;;;;4988695;28;20042;-66
2022/02/18 08:52:10;;;;;;;25.08;5.22;;;14.90;46.00;;;;;;4968957;28;20026;-66
2022/02/18 08:54:36;;;;;;;24.35;5.28;;;14.80;46.30;;;;;;4981493;28;20034;-69
2022/02/18 08:57:02;;;;;;;23.98;6.00;;;15.00;45.80;;;;;;4964044;28;20496;-68
2022/02/18 08:59:28;;;;;;;22.67;5.25;;;15.20;45.20;;;;;;4962260;28;20031;-68
2022/02/18 09:01:54;;;;;;;22.00;5.28;;;15.30;45.10;;;;;;4978164;28;20049;-67
2022/02/18 09:04:20;;;;;;;24.25;5.03;;;15.30;44.70;;;;;;4960295;28;20356;-71
2022/02/18 09:06:47;;;;;;;19.90;5.07;;;15.30;45.10;;;;;;4985143;28;20030;-69
2022/02/18 09:09:13;;;;;;;25.00;4.90;;;15.20;45.10;;;;;;4980309;28;20477;-67
2022/02/18 09:11:40;;;;;;;26.13;6.22;;;15.10;45.50;;;;;;4984291;28;20100;-70
2022/02/18 09:14:06;;;;;;;22.42;4.85;;;15.10;45.80;;;;;;4981648;28;20030;-70
2022/02/18 09:16:32;;;;;;;23.05;5.03;;;15.10;46.00;;;;;;4969750;28;20385;-68
2022/02/18 09:18:58;;;;;;;18.65;4.30;;;15.10;46.10;;;;;;4987775;28;20389;-72
2022/02/18 09:21:25;;;;;;;21.65;5.35;;;15.10;45.80;;;;;;4989676;28;20523;-72
2022/02/18 09:23:51;;;;;;;31.30;5.88;;;15.00;46.20;;;;;;4973389;28;20026;-70
2022/02/18 09:26:18;;;;;;;24.20;5.63;;;15.00;46.10;;;;;;4990106;28;20468;-72
2022/02/18 09:28:43;;;;;;;19.63;5.03;;;15.30;46.00;;;;;;4989865;28;20150;-69
2022/02/18 09:31:15;;;;;;;21.40;5.57;;;15.30;45.80;;;;;;4971856;28;20037;-69
2022/02/18 09:33:41;;;;;;;19.52;5.45;;;15.40;45.50;;;;;;4975765;28;20116;-66
2022/02/18 09:36:08;;;;;;;18.17;5.00;;;15.60;45.30;;;;;;4993072;28;20034;-68
2022/02/18 09:38:36;;;;;;;20.48;6.13;;;15.50;45.30;;;;;;4975471;28;20026;-68
2022/02/18 09:41:08;;;;;;;28.70;6.18;;;15.70;45.20;;;;;;4958903;28;20023;-70
2022/02/18 09:43:36;;;;;;;20.98;5.40;;;16.00;44.80;;;;;;4960103;28;20026;-69
2022/02/18 09:46:04;;;;;;;26.95;5.93;;;16.10;44.10;;;;;;4975584;28;20406;-69
2022/02/18 09:48:30;;;;;;;24.02;6.15;;;16.30;43.80;;;;;;4974054;28;20369;-70
2022/02/18 09:51:04;;;;;;;21.45;5.20;;;16.40;43.70;;;;;;4974925;28;20469;-68
2022/02/18 09:53:37;;;;;;;23.13;5.30;;;16.50;43.00;;;;;;4993328;28;20109;-70
2022/02/18 09:56:07;;;;;;;20.85;5.28;;;16.50;42.90;;;;;;4975516;28;20267;-68
2022/02/18 09:58:40;;;;;;;25.25;5.40;;;16.40;43.10;;;;;;4992588;28;20023;-68
2022/02/18 10:01:06;;;;;;;19.52;5.72;;;16.40;43.40;;;;;;4976123;28;20034;-71
2022/02/18 10:03:35;;;;;;;27.35;5.35;;;16.40;43.20;;;;;;4992859;28;20034;-68
2022/02/18 10:06:03;;;;;;;18.10;5.60;;;16.40;43.40;;;;;;4990957;28;20089;-65
2022/02/18 10:08:31;;;;;;;20.05;5.20;;;16.50;43.20;;;;;;4992535;28;20422;-67
2022/02/18 10:11:04;;;;;;;20.52;5.25;;;16.50;43.20;;;;;;4959617;28;20022;-65
2022/02/18 10:13:49;;;;;;;30.10;6.73;;;16.30;43.00;;;;;;4974865;28;20535;-69
2022/02/18 10:16:14;;;;;;;30.30;6.18;;;16.20;43.30;;;;;;4975229;28;20030;-65
2022/02/18 10:18:59;;;;;;;22.80;5.05;;;16.10;43.80;;;;;;4974507;28;20029;-68
2022/02/18 10:21:30;;;;;;;21.85;5.15;;;16.10;43.80;;;;;;4993085;28;20060;-65
2022/02/18 10:24:36;;;;;;;22.52;5.45;;;16.00;43.70;;;;;;4992544;28;20034;-65
2022/02/18 10:27:02;;;;;;;37.40;5.85;;;16.10;43.80;;;;;;4966261;28;20042;-65
2022/02/18 10:29:28;;;;;;;20.63;5.18;;;16.10;43.60;;;;;;4974900;28;20034;-65
2022/02/18 10:32:11;;;;;;;23.40;5.32;;;16.00;44.10;;;;;;4992489;28;20458;-66
2022/02/18 10:34:54;;;;;;;18.75;4.88;;;15.90;44.20;;;;;;4991974;28;20449;-66
2022/02/18 10:37:27;;;;;;;22.80;5.35;;;16.00;44.00;;;;;;4991743;28;20068;-67
2022/02/18 10:40:10;;;;;;;21.95;5.60;;;16.20;43.80;;;;;;4991929;28;20050;-67
2022/02/18 10:42:43;;;;;;;22.15;5.68;;;16.40;43.20;;;;;;4975074;28;20030;-65
2022/02/18 10:45:28;;;;;;;29.93;6.07;;;16.60;43.20;;;;;;4975461;28;20393;-67
2022/02/18 10:48:34;;;;;;;17.88;5.55;;;16.70;43.00;;;;;;4990708;28;20037;-70
2022/02/18 10:51:11;;;;;;;24.08;5.30;;;16.80;42.30;;;;;;4975092;28;20026;-66
2022/02/18 10:53:47;;;;;;;16.30;5.35;;;17.00;42.00;;;;;;4974637;28;20122;-67
2022/02/18 10:56:15;;;;;;;21.00;6.10;;;17.10;41.90;;;;;;4992241;28;20105;-66
2022/02/18 10:58:50;;;;;;;19.80;5.55;;;17.30;41.70;;;;;;4974529;28;20114;-66
2022/02/18 11:01:24;;;;;;;22.00;5.75;;;17.50;41.20;;;;;;4992011;28;20030;-66
2022/02/18 11:04:03;;;;;;;19.73;5.13;;;17.70;40.60;;;;;;4991350;28;20031;-67
2022/02/18 11:06:34;;;;;;;23.55;5.82;;;17.80;40.00;;;;;;4973885;28;20030;-68
2022/02/18 11:09:06;;;;;;;15.68;4.70;;;18.00;39.50;;;;;;4974041;28;20520;-67
2022/02/18 11:11:40;;;;;;;20.05;4.43;;;18.00;39.50;;;;;;4974574;28;20026;-68
2022/02/18 11:14:17;;;;;;;19.38;5.88;;;17.90;39.50;;;;;;4974363;28;20027;-67
2022/02/18 11:16:52;;;;;;;20.55;6.22;;;17.90;39.70;;;;;;4989442;28;20068;-67
2022/02/18 11:19:19;;;;;;;23.65;5.97;;;17.90;39.80;;;;;;4991612;28;20061;-67
2022/02/18 11:21:45;;;;;;;20.85;4.78;;;17.90;39.50;;;;;;4991558;28;20023;-68
2022/02/18 11:24:14;;;;;;;20.25;4.70;;;17.90;39.60;;;;;;4974463;28;20165;-66
2022/02/18 11:26:43;;;;;;;16.05;5.03;;;17.90;39.30;;;;;;4991296;28;20105;-68
2022/02/18 11:29:10;;;;;;;19.15;5.75;;;17.90;38.90;;;;;;4991938;28;20130;-67
2022/02/18 11:31:35;;;;;;;15.35;4.38;;;18.00;38.40;;;;;;4991612;28;20169;-68
2022/02/18 11:34:29;;;;;;;16.58;4.43;;;18.00;37.70;;;;;;4974278;28;20436;-66
2022/02/18 11:37:16;;;;;;;14.68;3.95;;;17.90;38.10;;;;;;4973869;28;20110;-66
2022/02/18 11:39:55;;;;;;;13.27;4.10;;;17.90;37.90;;;;;;4991435;28;20019;-67
2022/02/18 11:42:47;;;;;;;16.60;4.30;;;17.90;38.10;;;;;;4990768;28;20121;-67
2022/02/18 11:45:16;;;;;;;17.05;4.25;;;17.90;38.20;;;;;;4958324;28;20034;-66
2022/02/18 11:47:44;;;;;;;15.35;4.55;;;18.00;38.40;;;;;;4992361;28;20084;-68
2022/02/18 11:50:12;;;;;;;15.60;4.47;;;18.00;38.40;;;;;;4978388;28;20033;-67
2022/02/18 11:52:46;;;;;;;13.32;4.47;;;18.00;38.30;;;;;;4995705;28;20026;-67
2022/02/18 11:55:34;;;;;;;14.50;3.88;;;18.10;38.30;;;;;;4979142;28;20035;-68
2022/02/18 11:58:13;;;;;;;19.08;4.50;;;18.10;38.20;;;;;;4994701;28;20057;-68
2022/02/18 12:00:58;;;;;;;22.05;5.05;;;18.00;38.30;;;;;;4994745;28;20471;-67
2022/02/18 12:03:25;;;;;;;17.20;4.35;;;18.00;38.70;;;;;;4977799;28;20031;-76
2022/02/18 12:06:12;;;;;;;22.38;5.15;;;17.90;38.80;;;;;;4994826;28;20026;-69
2022/02/18 12:08:39;;;;;;;15.85;4.45;;;17.90;38.90;;;;;;4994926;28;20057;-71
2022/02/18 12:11:12;;;;;;;19.17;4.95;;;17.80;39.00;;;;;;4977521;28;20081;-68
2022/02/18 12:13:56;;;;;;;30.42;5.60;;;17.70;39.30;;;;;;4993826;28;20113;-69
2022/02/18 12:16:26;;;;;;;21.23;6.90;;;17.60;39.40;;;;;;4994130;28;20110;-73
2022/02/18 12:19:13;;;;;;;20.27;5.00;;;17.60;39.60;;;;;;4993653;28;20493;-75
2022/02/18 12:22:00;;;;;;;16.58;4.75;;;17.50;39.70;;;;;;4976095;28;20454;-70
2022/02/18 12:24:43;;;;;;;16.63;5.38;;;17.50;39.80;;;;;;4993717;28;20038;-69
2022/02/18 12:27:32;;;;;;;23.40;5.03;;;17.40;40.00;;;;;;4993376;28;20149;-67
2022/02/18 12:30:00;;;;;;;17.92;4.20;;;17.30;40.20;;;;;;4994512;28;20258;-69
2022/02/18 12:32:26;;;;;;;16.60;4.50;;;17.10;40.80;;;;;;4994542;28;20034;-72
2022/02/18 12:35:28;;;;;;;16.88;4.95;;;16.80;41.30;;;;;;4976425;28;20042;-71
2022/02/18 12:37:56;;;;;;;18.13;5.38;;;16.50;41.90;;;;;;4994221;28;20022;-72
2022/02/18 12:40:23;;;;;;;21.08;5.15;;;16.40;42.40;;;;;;4994061;28;20042;-69
2022/02/18 12:43:00;;;;;;;19.08;5.25;;;16.20;42.70;;;;;;4992691;28;20066;-68
2022/02/18 12:45:36;;;;;;;21.08;4.95;;;16.10;42.90;;;;;;4993732;28;20045;-70